Island Venture — WDG3765 — position and weather

sailwx.info

Track history (hours):
 
Tides and Currents Weather Stations Pressure Air Temp Water Temp Dewpoint Dewpoint Depression Visibility Wind Speed Wind Dir Waves Ship Positions

Island Venture

Owner: Island Tug & Barge Co, Seattle, WA. More information available from US FCC via Universal Licensing System and Coast Guard Vessel Documentation Center.

Last reported at 2014-Nov-17 02:09 UTC. Time now 2014-Nov-28 19:23 UTC.
Position N 47°34' W 122°21'.
Warning: this ship's position is 11 days out of date.

Type: Tug. MMSI: 367529420.

Date/timePositionNaut miles runAvg speedWind from/ knotsBaromVisibWave heightAir tempDewpointWater temp
2014-Nov-17 02:09N 47°34' W 122°21'0 0.0
2014-Nov-17 01:49N 47°34' W 122°21'0 0.0
2014-Nov-17 01:31N 47°34' W 122°21'0 0.0
2014-Nov-17 01:29N 47°34' W 122°21'0 0.0
2014-Nov-17 00:33N 47°34' W 122°21'0 0.0
2014-Nov-17 00:29N 47°34' W 122°21'0 0.0
2014-Nov-16 23:32N 47°34' W 122°21'0 0.0
2014-Nov-16 23:28N 47°34' W 122°21'0 0.0
2014-Nov-16 22:33N 47°34' W 122°21'0 0.0
2014-Nov-16 22:28N 47°34' W 122°21'  
2014-Nov-12 14:37N 47°34' W 122°21'0 0.1
2014-Nov-12 14:34N 47°34' W 122°21'0 0.0
2014-Nov-12 14:32N 47°34' W 122°21'2 1.9
2014-Nov-12 13:33N 47°33' W 122°20'0 1.1
2014-Nov-12 13:31N 47°33' W 122°20'1 1.1
2014-Nov-12 12:33N 47°34' W 122°21'0 0.3
2014-Nov-12 12:32N 47°34' W 122°21'1 0.9
2014-Nov-12 11:21N 47°33' W 122°20'0 0.6
2014-Nov-12 11:15N 47°33' W 122°20'1 1.4
2014-Nov-12 10:23N 47°34' W 122°21'1 3.0
2014-Nov-12 09:59N 47°35' W 122°22'2 5.0
2014-Nov-12 09:34N 47°35' W 122°25'032.4
2014-Nov-12 09:33N 47°36' W 122°25'7 6.9
2014-Nov-12 08:34N 47°30' W 122°30'8 7.6
2014-Nov-12 07:33N 47°22' W 122°32'9 8.7
2014-Nov-12 06:34N 47°14' W 122°35'10 0.7
2014-Nov-11 15:33N 47°11' W 122°50'5 4.9
2014-Nov-11 14:31N 47°08' W 122°44'4 3.8
2014-Nov-11 13:33N 47°09' W 122°39'4 3.7
2014-Nov-11 12:26N 47°13' W 122°36'7 7.9
2014-Nov-11 11:34N 47°19' W 122°34'4 3.8
2014-Nov-11 10:34N 47°23' W 122°32'3 3.3
2014-Nov-11 09:33N 47°26' W 122°31'3 3.0
2014-Nov-11 08:34N 47°29' W 122°30'4 3.6
2014-Nov-11 07:33N 47°32' W 122°27'5 5.0
2014-Nov-11 06:33N 47°36' W 122°22'2 2.1
2014-Nov-11 05:33N 47°34' W 122°21'2 2.2
2014-Nov-11 04:33N 47°36' W 122°22'6 5.9
2014-Nov-11 03:33N 47°32' W 122°28'6 6.5
2014-Nov-11 02:42N 47°27' W 122°31'1 7.2
2014-Nov-11 02:33N 47°25' W 122°31'6 6.4
2014-Nov-11 01:33N 47°19' W 122°33'4 4.1
2014-Nov-11 00:34N 47°15' W 122°34'6 6.0
2014-Nov-10 23:34N 47°10' W 122°38'2 1.8
2014-Nov-10 22:29N 47°08' W 122°39'0 0.0
2014-Nov-10 21:23N 47°08' W 122°39'0 0.0
2014-Nov-10 20:33N 47°08' W 122°39'0 0.0
2014-Nov-10 19:33N 47°08' W 122°39'0 0.0
2014-Nov-10 18:33N 47°08' W 122°39'0 0.0
2014-Nov-10 17:33N 47°08' W 122°39'1 0.7
2014-Nov-10 16:33N 47°09' W 122°39'8 8.1
2014-Nov-10 15:34N 47°16' W 122°33'9 9.0
2014-Nov-10 14:33N 47°25' W 122°32'3 8.4
2014-Nov-10 14:15N 47°27' W 122°32'7 9.5
2014-Nov-10 13:34N 47°33' W 122°27'1 9.4
2014-Nov-10 13:30N 47°34' W 122°27'3 3.6
2014-Nov-10 12:34N 47°35' W 122°22'0 1.8
2014-Nov-10 12:31N 47°35' W 122°22'1 1.6
2014-Nov-10 11:33N 47°34' W 122°21'0 1.5
2014-Nov-10 11:31N 47°34' W 122°21'1 0.6
2014-Nov-10 10:33N 47°34' W 122°21'0 0.0
2014-Nov-10 10:31N 47°34' W 122°21'0 0.0
2014-Nov-10 09:33N 47°34' W 122°21'0 0.0
2014-Nov-10 09:31N 47°34' W 122°21'0 0.0
2014-Nov-10 08:34N 47°34' W 122°21'0 0.0
2014-Nov-10 08:30N 47°34' W 122°21'0 0.0
2014-Nov-09 04:04N 47°34' W 122°21'0 0.0
2014-Nov-09 04:03N 47°34' W 122°21'0 1.0
2014-Nov-09 03:33N 47°34' W 122°21'0 0.0
2014-Nov-09 03:33N 47°34' W 122°21'3 3.2
2014-Nov-09 02:33N 47°37' W 122°24'0 4.4
2014-Nov-09 02:33N 47°37' W 122°24'6 5.9
2014-Nov-09 01:33N 47°42' W 122°28'0 7.2
2014-Nov-09 01:33N 47°42' W 122°28'6 6.4
2014-Nov-09 00:33N 47°48' W 122°28'0 6.2
2014-Nov-09 00:32N 47°48' W 122°28'6 6.2
2014-Nov-08 23:33N 47°54' W 122°30'1 6.3
2014-Nov-08 23:27N 47°55' W 122°30'6 7.0
2014-Nov-08 22:33N 47°59' W 122°37'4 6.5
2014-Nov-08 21:52N 48°03' W 122°39'2 6.2
2014-Nov-08 21:33N 48°05' W 122°40'7 7.1
2014-Nov-08 20:33N 48°11' W 122°47'7 5.9
2014-Nov-08 19:19N 48°18' W 122°48'5 6.2
2014-Nov-08 18:33N 48°23' W 122°46'7 6.6
2014-Nov-08 17:32N 48°29' W 122°44'7 7.2
2014-Nov-08 16:33N 48°36' W 122°45'5 5.3
2014-Nov-08 15:33N 48°41' W 122°44'5 4.8
2014-Nov-08 14:31N 48°45' W 122°49'5 5.7
2014-Nov-08 13:33N 48°48' W 122°55'5 5.0
2014-Nov-08 12:33N 48°51' W 123°02'5 4.6
2014-Nov-08 11:33N 48°54' W 123°08'5 4.8
2014-Nov-08 10:33N 48°57' W 123°13'5 5.4
2014-Nov-08 09:33N 49°01' W 123°19'6 5.8
2014-Nov-08 08:33N 49°05' W 123°25'6 6.0
2014-Nov-08 07:33N 49°09' W 123°32'7 6.9
2014-Nov-08 06:32N 49°13' W 123°40'7 6.9
2014-Nov-08 05:30N 49°18' W 123°49'7 6.7
2014-Nov-08 04:29N 49°22' W 123°57'7 6.9
2014-Nov-08 03:27N 49°27' W 124°05'7 6.6
2014-Nov-08 02:18N 49°31' W 124°14'5 6.0
2014-Nov-08 01:33N 49°34' W 124°20'7 6.0
2014-Nov-08 00:28N 49°37' W 124°29'5 2.7
2014-Nov-07 22:28N 49°42' W 124°33'0 0.1
2014-Nov-07 18:29N 49°42' W 124°33'0 0.1
2014-Nov-07 15:29N 49°42' W 124°33'0 0.0
2014-Nov-07 14:33N 49°42' W 124°33'3 2.5
2014-Nov-07 13:33N 49°40' W 124°32'2 2.4
2014-Nov-07 12:32N 49°38' W 124°30'3 2.6
2014-Nov-07 11:26N 49°36' W 124°27'3 2.7
2014-Nov-07 10:30N 49°34' W 124°23'2 2.5
2014-Nov-07 09:33N 49°33' W 124°20'5 5.1
2014-Nov-07 08:32N 49°31' W 124°13'7 6.8
2014-Nov-07 07:33N 49°26' W 124°06'8 6.4
2014-Nov-07 06:16N 49°22' W 123°55'5 5.9
2014-Nov-07 05:24N 49°19' W 123°48'5 5.4
2014-Nov-07 04:32N 49°16' W 123°43'6 5.8
2014-Nov-07 03:33N 49°12' W 123°36'6 6.0
2014-Nov-07 02:33N 49°09' W 123°29'  
Track history (hours):
 
Tides and Currents Weather Stations Pressure Air Temp Water Temp Dewpoint Dewpoint Depression Visibility Wind Speed Wind Dir Waves Ship Positions

Island Venture

Owner: Island Tug & Barge Co, Seattle, WA. More information available from US FCC via Universal Licensing System and Coast Guard Vessel Documentation Center.

Last reported at 2014-Nov-17 02:09 UTC. Time now 2014-Nov-28 19:23 UTC.
Position N 47°34' W 122°21'.
Warning: this ship's position is 11 days out of date.

Type: Tug. MMSI: 367529420.

Date/timePositionNaut miles runAvg speedWind from/ knotsBaromVisibWave heightAir tempDewpointWater temp
2014-Nov-17 02:09N 47°34' W 122°21'0 0.0
2014-Nov-17 01:49N 47°34' W 122°21'0 0.0
2014-Nov-17 01:31N 47°34' W 122°21'0 0.0
2014-Nov-17 01:29N 47°34' W 122°21'0 0.0
2014-Nov-17 00:33N 47°34' W 122°21'0 0.0
2014-Nov-17 00:29N 47°34' W 122°21'0 0.0
2014-Nov-16 23:32N 47°34' W 122°21'0 0.0
2014-Nov-16 23:28N 47°34' W 122°21'0 0.0
2014-Nov-16 22:33N 47°34' W 122°21'0 0.0
2014-Nov-16 22:28N 47°34' W 122°21'  
2014-Nov-12 14:37N 47°34' W 122°21'0 0.1
2014-Nov-12 14:34N 47°34' W 122°21'0 0.0
2014-Nov-12 14:32N 47°34' W 122°21'2 1.9
2014-Nov-12 13:33N 47°33' W 122°20'0 1.1
2014-Nov-12 13:31N 47°33' W 122°20'1 1.1
2014-Nov-12 12:33N 47°34' W 122°21'0 0.3
2014-Nov-12 12:32N 47°34' W 122°21'1 0.9
2014-Nov-12 11:21N 47°33' W 122°20'0 0.6
2014-Nov-12 11:15N 47°33' W 122°20'1 1.4
2014-Nov-12 10:23N 47°34' W 122°21'1 3.0
2014-Nov-12 09:59N 47°35' W 122°22'2 5.0
2014-Nov-12 09:34N 47°35' W 122°25'032.4
2014-Nov-12 09:33N 47°36' W 122°25'7 6.9
2014-Nov-12 08:34N 47°30' W 122°30'8 7.6
2014-Nov-12 07:33N 47°22' W 122°32'9 8.7
2014-Nov-12 06:34N 47°14' W 122°35'10 0.7
2014-Nov-11 15:33N 47°11' W 122°50'5 4.9
2014-Nov-11 14:31N 47°08' W 122°44'4 3.8
2014-Nov-11 13:33N 47°09' W 122°39'4 3.7
2014-Nov-11 12:26N 47°13' W 122°36'7 7.9
2014-Nov-11 11:34N 47°19' W 122°34'4 3.8
2014-Nov-11 10:34N 47°23' W 122°32'3 3.3
2014-Nov-11 09:33N 47°26' W 122°31'3 3.0
2014-Nov-11 08:34N 47°29' W 122°30'4 3.6
2014-Nov-11 07:33N 47°32' W 122°27'5 5.0
2014-Nov-11 06:33N 47°36' W 122°22'2 2.1
2014-Nov-11 05:33N 47°34' W 122°21'2 2.2
2014-Nov-11 04:33N 47°36' W 122°22'6 5.9
2014-Nov-11 03:33N 47°32' W 122°28'6 6.5
2014-Nov-11 02:42N 47°27' W 122°31'1 7.2
2014-Nov-11 02:33N 47°25' W 122°31'6 6.4
2014-Nov-11 01:33N 47°19' W 122°33'4 4.1
2014-Nov-11 00:34N 47°15' W 122°34'6 6.0
2014-Nov-10 23:34N 47°10' W 122°38'2 1.8
2014-Nov-10 22:29N 47°08' W 122°39'0 0.0
2014-Nov-10 21:23N 47°08' W 122°39'0 0.0
2014-Nov-10 20:33N 47°08' W 122°39'0 0.0
2014-Nov-10 19:33N 47°08' W 122°39'0 0.0
2014-Nov-10 18:33N 47°08' W 122°39'0 0.0
2014-Nov-10 17:33N 47°08' W 122°39'1 0.7
2014-Nov-10 16:33N 47°09' W 122°39'8 8.1
2014-Nov-10 15:34N 47°16' W 122°33'9 9.0
2014-Nov-10 14:33N 47°25' W 122°32'3 8.4
2014-Nov-10 14:15N 47°27' W 122°32'7 9.5
2014-Nov-10 13:34N 47°33' W 122°27'1 9.4
2014-Nov-10 13:30N 47°34' W 122°27'3 3.6
2014-Nov-10 12:34N 47°35' W 122°22'0 1.8
2014-Nov-10 12:31N 47°35' W 122°22'1 1.6
2014-Nov-10 11:33N 47°34' W 122°21'0 1.5
2014-Nov-10 11:31N 47°34' W 122°21'1 0.6
2014-Nov-10 10:33N 47°34' W 122°21'0 0.0
2014-Nov-10 10:31N 47°34' W 122°21'0 0.0
2014-Nov-10 09:33N 47°34' W 122°21'0 0.0
2014-Nov-10 09:31N 47°34' W 122°21'0 0.0
2014-Nov-10 08:34N 47°34' W 122°21'0 0.0
2014-Nov-10 08:30N 47°34' W 122°21'0 0.0
2014-Nov-09 04:04N 47°34' W 122°21'0 0.0
2014-Nov-09 04:03N 47°34' W 122°21'0 1.0
2014-Nov-09 03:33N 47°34' W 122°21'0 0.0
2014-Nov-09 03:33N 47°34' W 122°21'3 3.2
2014-Nov-09 02:33N 47°37' W 122°24'0 4.4
2014-Nov-09 02:33N 47°37' W 122°24'6 5.9
2014-Nov-09 01:33N 47°42' W 122°28'0 7.2
2014-Nov-09 01:33N 47°42' W 122°28'6 6.4
2014-Nov-09 00:33N 47°48' W 122°28'0 6.2
2014-Nov-09 00:32N 47°48' W 122°28'6 6.2
2014-Nov-08 23:33N 47°54' W 122°30'1 6.3
2014-Nov-08 23:27N 47°55' W 122°30'6 7.0
2014-Nov-08 22:33N 47°59' W 122°37'4 6.5
2014-Nov-08 21:52N 48°03' W 122°39'2 6.2
2014-Nov-08 21:33N 48°05' W 122°40'7 7.1
2014-Nov-08 20:33N 48°11' W 122°47'7 5.9
2014-Nov-08 19:19N 48°18' W 122°48'5 6.2
2014-Nov-08 18:33N 48°23' W 122°46'7 6.6
2014-Nov-08 17:32N 48°29' W 122°44'7 7.2
2014-Nov-08 16:33N 48°36' W 122°45'5 5.3
2014-Nov-08 15:33N 48°41' W 122°44'5 4.8
2014-Nov-08 14:31N 48°45' W 122°49'5 5.7
2014-Nov-08 13:33N 48°48' W 122°55'5 5.0
2014-Nov-08 12:33N 48°51' W 123°02'5 4.6
2014-Nov-08 11:33N 48°54' W 123°08'5 4.8
2014-Nov-08 10:33N 48°57' W 123°13'5 5.4
2014-Nov-08 09:33N 49°01' W 123°19'6 5.8
2014-Nov-08 08:33N 49°05' W 123°25'6 6.0
2014-Nov-08 07:33N 49°09' W 123°32'7 6.9
2014-Nov-08 06:32N 49°13' W 123°40'7 6.9
2014-Nov-08 05:30N 49°18' W 123°49'7 6.7
2014-Nov-08 04:29N 49°22' W 123°57'7 6.9
2014-Nov-08 03:27N 49°27' W 124°05'7 6.6
2014-Nov-08 02:18N 49°31' W 124°14'5 6.0
2014-Nov-08 01:33N 49°34' W 124°20'7 6.0
2014-Nov-08 00:28N 49°37' W 124°29'5 2.7
2014-Nov-07 22:28N 49°42' W 124°33'0 0.1
2014-Nov-07 18:29N 49°42' W 124°33'0 0.1
2014-Nov-07 15:29N 49°42' W 124°33'0 0.0
2014-Nov-07 14:33N 49°42' W 124°33'3 2.5
2014-Nov-07 13:33N 49°40' W 124°32'2 2.4
2014-Nov-07 12:32N 49°38' W 124°30'3 2.6
2014-Nov-07 11:26N 49°36' W 124°27'3 2.7
2014-Nov-07 10:30N 49°34' W 124°23'2 2.5
2014-Nov-07 09:33N 49°33' W 124°20'5 5.1
2014-Nov-07 08:32N 49°31' W 124°13'7 6.8
2014-Nov-07 07:33N 49°26' W 124°06'8 6.4
2014-Nov-07 06:16N 49°22' W 123°55'5 5.9
2014-Nov-07 05:24N 49°19' W 123°48'5 5.4
2014-Nov-07 04:32N 49°16' W 123°43'6 5.8
2014-Nov-07 03:33N 49°12' W 123°36'6 6.0
2014-Nov-07 02:33N 49°09' W 123°29'  

Dump ship's entire track history